Time;durP1;ratioP1;P1;durP2;ratioP2;P2;SDS_P1;SDS_P2;PMS_P1;PMS_P2;Temp;Humidity;BMP_temperature;BMP_pressure;BME280_temperature;BME280_humidity;BME280_pressure;Samples;Min_cycle;Max_cycle;Signal;HPM_P1;HPM_P2
2021/01/17 00:00:29;;;;;;;36.15;20.88;;;0.10;94.00;;;;;;4943045;28;20139;-79
2021/01/17 00:02:56;;;;;;;35.35;20.83;;;0.10;94.00;;;;;;4944170;29;20053;-81
2021/01/17 00:05:25;;;;;;;34.72;21.30;;;0.10;93.90;;;;;;4944135;29;20043;-81
2021/01/17 00:07:51;;;;;;;36.30;21.63;;;0.10;94.00;;;;;;4943138;29;20496;-81
2021/01/17 00:10:23;;;;;;;36.47;21.30;;;0.10;94.10;;;;;;4942370;28;20048;-81
2021/01/17 00:12:50;;;;;;;34.95;20.70;;;0.20;94.30;;;;;;4942301;28;20035;-81
2021/01/17 00:15:16;;;;;;;37.83;21.80;;;0.20;94.10;;;;;;4943932;29;20051;-81
2021/01/17 00:17:43;;;;;;;38.10;21.95;;;0.10;94.10;;;;;;4945142;28;20546;-81
2021/01/17 00:20:11;;;;;;;38.10;21.77;;;0.10;94.00;;;;;;4952427;28;20043;-81
2021/01/17 00:22:37;;;;;;;37.38;21.95;;;0.20;94.00;;;;;;4951547;28;20101;-80
2021/01/17 00:25:09;;;;;;;38.53;21.85;;;0.20;94.10;;;;;;4952621;28;20480;-81
2021/01/17 00:27:35;;;;;;;36.53;21.60;;;0.20;94.10;;;;;;4951474;28;20062;-80
2021/01/17 00:30:03;;;;;;;37.17;22.52;;;0.20;94.10;;;;;;4952782;28;20047;-81
2021/01/17 00:32:28;;;;;;;38.28;22.38;;;0.20;94.00;;;;;;4952818;28;20067;-81
2021/01/17 00:34:54;;;;;;;37.22;21.88;;;0.20;94.10;;;;;;4951862;29;20138;-81
2021/01/17 00:37:20;;;;;;;37.10;21.88;;;0.20;94.10;;;;;;4949998;29;20043;-81
2021/01/17 00:39:46;;;;;;;36.92;21.33;;;0.20;94.10;;;;;;4951843;28;20059;-81
2021/01/17 00:42:14;;;;;;;35.40;21.38;;;0.20;94.10;;;;;;4952773;29;20067;-80
2021/01/17 00:44:44;;;;;;;38.65;23.30;;;0.20;94.00;;;;;;4949262;29;20551;-81
2021/01/17 00:47:13;;;;;;;34.65;21.08;;;0.20;94.10;;;;;;4954546;28;20399;-81
2021/01/17 00:49:40;;;;;;;38.42;22.02;;;0.20;94.10;;;;;;4955032;29;20049;-81
2021/01/17 00:52:05;;;;;;;37.63;21.85;;;0.20;94.10;;;;;;4955774;28;20372;-81
2021/01/17 00:54:31;;;;;;;37.88;22.33;;;0.20;94.10;;;;;;4955636;29;20043;-80
2021/01/17 00:57:03;;;;;;;39.63;22.30;;;0.10;94.10;;;;;;4955292;29;20099;-81
2021/01/17 00:59:29;;;;;;;38.97;22.30;;;0.20;94.20;;;;;;4970354;28;20044;-81
2021/01/17 01:01:55;;;;;;;38.65;23.30;;;0.20;94.20;;;;;;4950496;29;20043;-81
2021/01/17 01:04:21;;;;;;;37.85;22.13;;;0.20;94.10;;;;;;4955093;29;20038;-81
2021/01/17 01:06:50;;;;;;;38.58;23.15;;;0.20;94.20;;;;;;4954860;28;20054;-81
2021/01/17 01:09:16;;;;;;;42.72;23.52;;;0.20;94.20;;;;;;4950422;28;20068;-81
2021/01/17 01:11:42;;;;;;;40.75;23.25;;;0.20;94.10;;;;;;4945338;28;20064;-81
2021/01/17 01:14:09;;;;;;;41.45;23.17;;;0.20;94.10;;;;;;4945932;29;20160;-81
2021/01/17 01:16:35;;;;;;;38.80;22.92;;;0.20;94.30;;;;;;4966828;28;20495;-80
2021/01/17 01:19:02;;;;;;;40.42;23.25;;;0.20;94.20;;;;;;4966135;28;20480;-81
2021/01/17 01:21:32;;;;;;;40.78;22.20;;;0.20;94.30;;;;;;4954974;28;20395;-81
2021/01/17 01:23:58;;;;;;;40.70;22.90;;;0.20;94.30;;;;;;4952215;28;20050;-81
2021/01/17 01:26:25;;;;;;;40.05;22.58;;;0.20;94.30;;;;;;4954567;28;20111;-81
2021/01/17 01:28:54;;;;;;;42.50;24.00;;;0.20;94.20;;;;;;4953818;28;20043;-81
2021/01/17 01:31:21;;;;;;;40.50;22.27;;;0.20;94.20;;;;;;4943587;29;20492;-81
2021/01/17 01:33:48;;;;;;;42.58;23.55;;;0.30;94.30;;;;;;4944436;28;20054;-81
2021/01/17 01:36:20;;;;;;;42.67;23.25;;;0.30;94.30;;;;;;4943678;29;20206;-80
2021/01/17 01:38:47;;;;;;;41.90;23.30;;;0.20;94.30;;;;;;4951326;29;20539;-81
2021/01/17 01:41:15;;;;;;;41.53;23.05;;;0.20;94.40;;;;;;4968799;28;20047;-81
2021/01/17 01:43:41;;;;;;;42.38;23.73;;;0.20;94.30;;;;;;4950556;29;20487;-81
2021/01/17 01:46:10;;;;;;;41.35;23.77;;;0.20;94.30;;;;;;4947288;29;20070;-80
2021/01/17 01:48:36;;;;;;;45.80;24.27;;;0.20;94.30;;;;;;4935720;29;20052;-79
2021/01/17 01:51:02;;;;;;;40.40;23.17;;;0.20;94.40;;;;;;4950867;29;20589;-81
2021/01/17 01:53:31;;;;;;;41.35;23.02;;;0.20;94.40;;;;;;4936350;29;20048;-81
2021/01/17 01:56:01;;;;;;;43.17;23.27;;;0.20;94.40;;;;;;4935317;29;20062;-81
2021/01/17 01:58:27;;;;;;;41.80;23.45;;;0.30;94.50;;;;;;4935521;29;20044;-81
2021/01/17 02:00:54;;;;;;;41.75;23.33;;;0.30;94.40;;;;;;4934156;29;20473;-81
2021/01/17 02:03:20;;;;;;;41.70;23.50;;;0.30;94.40;;;;;;4935785;29;20055;-80
2021/01/17 02:05:46;;;;;;;40.38;23.40;;;0.20;94.40;;;;;;4935380;29;20047;-80
2021/01/17 02:08:42;;;;;;;42.42;23.23;;;0.30;94.50;;;;;;4951326;29;20138;-80
2021/01/17 02:11:24;;;;;;;41.55;22.65;;;0.30;94.50;;;;;;4955030;28;20044;-81
2021/01/17 02:14:25;;;;;;;44.65;24.17;;;0.30;94.60;;;;;;4954057;28;20129;-80
2021/01/17 02:16:53;;;;;;;42.88;23.25;;;0.30;94.50;;;;;;4952539;28;20057;-80
2021/01/17 02:19:22;;;;;;;42.42;23.65;;;0.30;94.50;;;;;;4970417;28;20432;-81
2021/01/17 02:21:56;;;;;;;44.40;23.55;;;0.30;94.60;;;;;;4973126;28;20057;-80
2021/01/17 02:24:33;;;;;;;41.00;22.90;;;0.30;94.60;;;;;;4974177;28;20058;-80
2021/01/17 02:27:00;;;;;;;42.13;23.50;;;0.30;94.60;;;;;;4973389;28;20063;-80
2021/01/17 02:29:27;;;;;;;43.60;24.10;;;0.30;94.70;;;;;;4961984;28;20130;-80
2021/01/17 02:31:58;;;;;;;43.35;23.70;;;0.30;94.60;;;;;;4953858;28;20043;-80
2021/01/17 02:34:26;;;;;;;42.92;24.33;;;0.30;94.70;;;;;;4954918;28;20110;-80
2021/01/17 02:37:29;;;;;;;45.60;24.08;;;0.30;94.60;;;;;;4953423;28;20051;-80
2021/01/17 02:40:32;;;;;;;47.00;24.50;;;0.30;94.70;;;;;;4941710;28;20058;-81
2021/01/17 02:43:01;;;;;;;42.65;24.13;;;0.30;94.80;;;;;;4952522;29;20850;-80
2021/01/17 02:45:27;;;;;;;42.25;23.65;;;0.30;94.80;;;;;;4953263;29;20050;-80
2021/01/17 02:47:53;;;;;;;41.40;22.90;;;0.30;94.80;;;;;;4952373;29;20043;-81
2021/01/17 02:50:19;;;;;;;43.05;24.02;;;0.30;94.70;;;;;;4954301;29;20126;-80
2021/01/17 02:52:55;;;;;;;46.60;25.58;;;0.30;94.80;;;;;;4952391;29;20050;-80
2021/01/17 02:55:21;;;;;;;44.40;24.58;;;0.30;94.70;;;;;;4954483;28;20039;-80
2021/01/17 02:57:52;;;;;;;44.92;24.25;;;0.30;94.70;;;;;;4953389;28;20054;-80
2021/01/17 03:00:25;;;;;;;45.13;24.10;;;0.30;94.70;;;;;;4953835;28;20488;-80
2021/01/17 03:02:52;;;;;;;47.10;25.02;;;0.30;94.80;;;;;;4953167;28;20047;-80
2021/01/17 03:05:21;;;;;;;45.80;24.67;;;0.30;94.90;;;;;;4953951;28;20048;-80
2021/01/17 03:07:55;;;;;;;44.78;23.23;;;0.30;94.90;;;;;;4967801;28;20488;-80
2021/01/17 03:10:23;;;;;;;45.57;25.37;;;0.30;94.90;;;;;;4952691;28;20051;-80
2021/01/17 03:12:51;;;;;;;49.50;24.83;;;0.30;94.90;;;;;;4952843;28;20483;-80
2021/01/17 03:15:17;;;;;;;48.50;25.35;;;0.40;95.00;;;;;;4968540;28;20098;-79
2021/01/17 03:17:43;;;;;;;46.03;24.23;;;0.30;95.00;;;;;;4956290;28;20069;-79
2021/01/17 03:20:10;;;;;;;46.58;24.23;;;0.40;95.10;;;;;;4973165;28;20050;-80
2021/01/17 03:22:36;;;;;;;44.72;24.42;;;0.40;95.00;;;;;;4971908;28;20078;-80
2021/01/17 03:25:02;;;;;;;46.63;24.30;;;0.40;95.10;;;;;;4972441;28;20499;-80
2021/01/17 03:27:28;;;;;;;43.88;23.30;;;0.40;95.00;;;;;;4973193;28;20046;-80
2021/01/17 03:29:54;;;;;;;45.25;24.50;;;0.40;95.20;;;;;;4954922;28;20094;-80
2021/01/17 03:32:19;;;;;;;44.78;23.88;;;0.40;95.30;;;;;;4953238;28;20122;-80
2021/01/17 03:34:48;;;;;;;43.90;23.25;;;0.40;95.10;;;;;;4952899;29;20074;-79
2021/01/17 03:37:19;;;;;;;45.53;24.35;;;0.40;95.10;;;;;;4953791;28;20071;-80
2021/01/17 03:39:45;;;;;;;43.47;23.70;;;0.30;95.00;;;;;;4953232;28;20050;-79
2021/01/17 03:42:11;;;;;;;43.67;24.15;;;0.40;95.10;;;;;;4953053;28;20043;-80
2021/01/17 03:44:38;;;;;;;42.25;23.10;;;0.40;95.10;;;;;;4953911;29;20054;-80
2021/01/17 03:47:05;;;;;;;43.25;23.73;;;0.40;95.10;;;;;;4967621;28;20059;-80
2021/01/17 03:49:31;;;;;;;40.97;23.50;;;0.50;95.00;;;;;;4953777;28;20043;-80
2021/01/17 03:51:57;;;;;;;42.78;23.35;;;0.40;95.00;;;;;;4967635;28;20372;-79
2021/01/17 03:54:23;;;;;;;42.10;23.05;;;0.40;95.00;;;;;;4953264;28;20126;-79
2021/01/17 03:56:49;;;;;;;43.05;23.80;;;0.50;95.10;;;;;;4952586;28;20047;-79
2021/01/17 03:59:16;;;;;;;42.38;22.67;;;0.40;95.20;;;;;;4953210;28;20547;-79
2021/01/17 04:01:43;;;;;;;36.33;21.95;;;0.40;95.10;;;;;;4953643;28;20126;-79
2021/01/17 04:04:09;;;;;;;42.15;23.55;;;0.40;95.20;;;;;;4952501;28;20551;-80
2021/01/17 04:06:36;;;;;;;40.25;22.83;;;0.50;95.20;;;;;;4953486;28;20051;-80
2021/01/17 04:09:03;;;;;;;41.17;23.42;;;0.40;95.30;;;;;;4967617;28;20071;-80
2021/01/17 04:11:29;;;;;;;37.20;21.80;;;0.40;95.20;;;;;;4953060;28;20059;-80
2021/01/17 04:13:55;;;;;;;41.92;22.27;;;0.50;95.20;;;;;;4967258;28;20455;-80
2021/01/17 04:16:21;;;;;;;36.15;21.23;;;0.50;95.20;;;;;;4953286;29;20063;-80
2021/01/17 04:18:46;;;;;;;38.75;22.00;;;0.50;95.30;;;;;;4952733;28;20118;-81
2021/01/17 04:21:12;;;;;;;38.28;21.38;;;0.50;95.30;;;;;;4954047;28;20051;-80
2021/01/17 04:23:38;;;;;;;37.35;21.02;;;0.50;95.30;;;;;;4955866;29;20039;-80
2021/01/17 04:26:04;;;;;;;36.70;20.67;;;0.50;95.40;;;;;;4954791;29;20059;-80
2021/01/17 04:28:30;;;;;;;37.67;22.45;;;0.50;95.30;;;;;;4956854;29;20130;-80
2021/01/17 04:30:56;;;;;;;39.22;21.73;;;0.50;95.40;;;;;;4956204;28;20105;-80
2021/01/17 04:33:22;;;;;;;37.22;21.98;;;0.50;95.40;;;;;;4956820;29;20047;-80
2021/01/17 04:35:48;;;;;;;35.75;21.10;;;0.50;95.40;;;;;;4971491;28;20046;-80
2021/01/17 04:38:13;;;;;;;35.08;20.60;;;0.50;95.40;;;;;;4954879;29;20498;-80
2021/01/17 04:40:39;;;;;;;37.65;21.88;;;0.50;95.40;;;;;;4956570;28;20055;-80
2021/01/17 04:43:07;;;;;;;36.05;21.25;;;0.50;95.30;;;;;;4955770;29;20050;-80
2021/01/17 04:45:34;;;;;;;36.80;20.88;;;0.50;95.40;;;;;;4956509;28;20406;-80
2021/01/17 04:48:02;;;;;;;35.30;20.02;;;0.50;95.40;;;;;;4955825;28;20039;-81
2021/01/17 04:50:31;;;;;;;36.45;20.85;;;0.50;95.40;;;;;;4955231;29;20047;-81
2021/01/17 04:53:07;;;;;;;34.50;20.27;;;0.50;95.40;;;;;;4955645;28;20043;-83
2021/01/17 04:55:38;;;;;;;37.95;20.75;;;0.50;95.40;;;;;;4956396;28;20047;-86
2021/01/17 04:58:12;;;;;;;36.75;20.73;;;0.60;95.50;;;;;;4955275;28;20094;-87
2021/01/17 05:00:42;;;;;;;35.30;19.70;;;0.50;95.40;;;;;;4956141;29;20047;-85
2021/01/17 05:03:11;;;;;;;33.28;19.95;;;0.50;95.50;;;;;;4955782;28;20051;-85
2021/01/17 05:06:14;;;;;;;35.97;20.48;;;0.50;95.50;;;;;;4956268;28;20055;-84
2021/01/17 05:08:44;;;;;;;33.90;18.80;;;0.50;95.50;;;;;;4955978;28;20051;-83
2021/01/17 05:11:31;;;;;;;34.35;19.75;;;0.60;95.40;;;;;;4955270;28;20047;-82
2021/01/17 05:14:20;;;;;;;34.38;18.90;;;0.60;95.40;;;;;;4955113;28;20503;-81
2021/01/17 05:16:47;;;;;;;29.35;18.02;;;0.60;95.40;;;;;;4956134;28;20086;-81
2021/01/17 05:19:15;;;;;;;30.52;18.88;;;0.60;95.40;;;;;;4969622;28;20225;-80
2021/01/17 05:21:46;;;;;;;30.42;18.27;;;0.60;95.30;;;;;;4975164;28;20074;-81
2021/01/17 05:24:13;;;;;;;30.08;18.25;;;0.60;95.40;;;;;;4974227;28;20046;-80
2021/01/17 05:26:57;;;;;;;32.15;19.23;;;0.60;95.40;;;;;;4975245;28;20046;-80
2021/01/17 05:29:25;;;;;;;30.70;17.90;;;0.60;95.40;;;;;;4975214;28;20102;-80
2021/01/17 05:31:58;;;;;;;31.73;18.70;;;0.60;95.40;;;;;;4955661;28;20434;-80
2021/01/17 05:34:25;;;;;;;32.63;18.73;;;0.60;95.40;;;;;;4970020;28;20044;-79
2021/01/17 05:37:05;;;;;;;31.27;18.08;;;0.60;95.50;;;;;;4955525;28;20485;-80
2021/01/17 05:39:53;;;;;;;30.73;18.55;;;0.60;95.70;;;;;;4955647;28;20051;-80
2021/01/17 05:42:34;;;;;;;34.17;19.63;;;0.60;95.40;;;;;;4953969;29;20110;-80
2021/01/17 05:45:12;;;;;;;31.90;18.63;;;0.60;95.40;;;;;;4954897;28;20046;-79
2021/01/17 05:48:03;;;;;;;31.10;18.52;;;0.70;95.50;;;;;;4966780;28;20420;-79
2021/01/17 05:50:49;;;;;;;34.38;19.23;;;0.60;95.40;;;;;;4955195;29;20051;-79
2021/01/17 05:53:15;;;;;;;32.80;18.92;;;0.60;95.40;;;;;;4954360;29;20102;-79
2021/01/17 05:55:44;;;;;;;32.15;19.20;;;0.60;95.40;;;;;;4955418;29;20054;-79
2021/01/17 05:58:27;;;;;;;32.33;18.30;;;0.70;95.40;;;;;;4969370;28;20123;-79
2021/01/17 06:00:57;;;;;;;34.67;19.45;;;0.70;95.40;;;;;;4955212;29;20061;-79
2021/01/17 06:03:33;;;;;;;32.33;18.23;;;0.60;95.30;;;;;;4955095;28;20050;-79
2021/01/17 06:06:01;;;;;;;32.22;19.38;;;0.70;95.40;;;;;;4969244;28;20062;-79
2021/01/17 06:08:29;;;;;;;31.75;18.75;;;0.70;95.40;;;;;;4955229;28;20128;-79
2021/01/17 06:11:09;;;;;;;31.27;18.90;;;0.70;95.40;;;;;;4954748;28;20051;-79
2021/01/17 06:13:37;;;;;;;32.47;18.40;;;0.70;95.40;;;;;;4955042;28;20043;-79
2021/01/17 06:16:33;;;;;;;31.33;18.58;;;0.70;95.40;;;;;;4953787;28;20507;-79
2021/01/17 06:19:01;;;;;;;31.55;18.23;;;0.70;95.30;;;;;;4965889;28;20043;-79
2021/01/17 06:21:29;;;;;;;31.70;18.55;;;0.70;95.30;;;;;;4973149;28;20117;-79
2021/01/17 06:24:00;;;;;;;31.02;17.70;;;0.70;95.40;;;;;;4973991;28;20051;-79
2021/01/17 06:26:36;;;;;;;28.48;17.33;;;0.70;95.40;;;;;;4973034;28;20510;-79
2021/01/17 06:29:05;;;;;;;31.83;18.08;;;0.70;95.40;;;;;;4972187;28;20121;-79
2021/01/17 06:31:32;;;;;;;29.42;18.10;;;0.70;95.40;;;;;;4956528;28;20138;-79
2021/01/17 06:34:19;;;;;;;31.02;18.30;;;0.70;95.40;;;;;;4953942;28;20047;-79
2021/01/17 06:36:46;;;;;;;32.40;18.83;;;0.70;95.40;;;;;;4954428;28;20442;-79
2021/01/17 06:39:26;;;;;;;30.58;18.15;;;0.70;95.40;;;;;;4952624;29;20051;-79
2021/01/17 06:41:54;;;;;;;30.38;17.58;;;0.70;95.40;;;;;;4969447;28;20043;-79
2021/01/17 06:44:30;;;;;;;28.67;16.60;;;0.70;95.40;;;;;;4953473;28;20900;-79
2021/01/17 06:46:57;;;;;;;30.90;17.98;;;0.80;95.40;;;;;;4954662;28;20039;-79
2021/01/17 06:49:32;;;;;;;29.63;17.52;;;0.70;95.40;;;;;;4968518;28;20519;-79
2021/01/17 06:52:01;;;;;;;29.88;17.75;;;0.70;95.40;;;;;;4954206;28;20058;-79
2021/01/17 06:54:35;;;;;;;32.45;17.98;;;0.70;95.50;;;;;;4954332;28;20071;-79
2021/01/17 06:57:02;;;;;;;30.30;18.23;;;0.70;95.40;;;;;;4953667;28;20047;-79
2021/01/17 06:59:36;;;;;;;31.80;18.42;;;0.70;95.50;;;;;;4953971;28;20128;-79
2021/01/17 07:02:17;;;;;;;35.78;19.23;;;0.70;95.40;;;;;;4952219;29;20047;-79
2021/01/17 07:05:18;;;;;;;32.67;17.95;;;0.80;95.50;;;;;;4954107;28;20047;-79
2021/01/17 07:08:23;;;;;;;33.17;17.92;;;0.80;95.70;;;;;;4954213;29;20057;-79
2021/01/17 07:10:58;;;;;;;37.53;18.98;;;0.80;95.60;;;;;;4953620;28;20055;-79
2021/01/17 07:13:27;;;;;;;;;;;0.70;95.50;;;;;;4952777;29;20051;-79
2021/01/17 07:15:54;;;;;;;33.97;17.73;;;0.70;95.70;;;;;;4953792;28;20383;-79
2021/01/17 07:18:24;;;;;;;33.08;18.05;;;0.70;95.60;;;;;;4960623;28;20045;-79
2021/01/17 07:20:50;;;;;;;35.85;18.92;;;0.70;95.60;;;;;;4973378;28;20498;-79
2021/01/17 07:23:18;;;;;;;37.03;18.88;;;0.80;95.60;;;;;;4972089;28;20101;-79
2021/01/17 07:25:45;;;;;;;37.25;19.70;;;0.70;95.50;;;;;;4973214;28;20049;-79
2021/01/17 07:28:15;;;;;;;35.75;18.23;;;0.70;95.60;;;;;;4972437;28;20053;-79
2021/01/17 07:30:44;;;;;;;37.15;19.65;;;0.70;95.50;;;;;;4960503;28;20130;-79
2021/01/17 07:33:12;;;;;;;38.53;19.38;;;0.80;95.50;;;;;;4968029;28;20051;-80
2021/01/17 07:35:42;;;;;;;35.95;18.98;;;0.80;95.50;;;;;;4953760;28;20046;-79
2021/01/17 07:38:29;;;;;;;37.97;19.08;;;0.80;95.50;;;;;;4951750;29;20126;-79
2021/01/17 07:41:12;;;;;;;43.10;19.60;;;0.80;95.50;;;;;;4953561;28;20043;-79
2021/01/17 07:43:44;;;;;;;40.25;18.08;;;0.80;95.50;;;;;;4953381;28;20126;-79
2021/01/17 07:46:15;;;;;;;42.10;19.15;;;0.80;95.50;;;;;;4951452;29;20059;-79
2021/01/17 07:48:42;;;;;;;40.03;18.70;;;0.80;95.50;;;;;;4953213;28;20050;-79
2021/01/17 07:51:11;;;;;;;40.92;19.63;;;0.80;95.60;;;;;;4952369;28;20043;-79
2021/01/17 07:53:37;;;;;;;41.17;19.63;;;0.80;95.60;;;;;;4953691;28;20051;-79
2021/01/17 07:56:09;;;;;;;41.78;19.55;;;0.80;95.60;;;;;;4953999;28;20506;-79
2021/01/17 07:58:48;;;;;;;40.92;19.58;;;0.80;95.60;;;;;;4957405;28;20097;-79
2021/01/17 08:01:35;;;;;;;42.55;19.58;;;0.80;95.50;;;;;;4955621;29;20047;-79
2021/01/17 08:04:03;;;;;;;46.50;19.45;;;0.80;95.60;;;;;;4972396;28;20047;-79
2021/01/17 08:06:35;;;;;;;40.20;20.02;;;0.80;95.60;;;;;;4956945;29;20118;-79
2021/01/17 08:09:01;;;;;;;48.92;20.20;;;0.80;95.50;;;;;;4956857;29;20074;-79
2021/01/17 08:11:57;;;;;;;42.42;19.55;;;0.90;95.60;;;;;;4970468;28;20106;-80
2021/01/17 08:14:33;;;;;;;42.85;18.67;;;0.90;95.60;;;;;;4951827;29;20047;-80
2021/01/17 08:17:15;;;;;;;40.85;19.70;;;0.90;95.60;;;;;;4937697;29;20062;-80
2021/01/17 08:19:53;;;;;;;37.17;18.92;;;0.90;95.60;;;;;;4974792;28;20434;-80
2021/01/17 08:22:21;;;;;;;39.22;19.42;;;0.90;95.60;;;;;;4975683;28;20050;-80
2021/01/17 08:24:57;;;;;;;45.33;19.98;;;0.90;95.60;;;;;;4976321;28;20072;-80
2021/01/17 08:27:41;;;;;;;43.35;19.15;;;0.90;95.50;;;;;;4990729;28;20492;-80
2021/01/17 08:30:11;;;;;;;42.00;18.98;;;0.90;95.50;;;;;;4975950;28;20530;-80
2021/01/17 08:32:40;;;;;;;45.30;20.40;;;0.90;95.50;;;;;;4975277;28;20486;-80
2021/01/17 08:35:18;;;;;;;49.00;20.25;;;0.90;95.50;;;;;;4974717;28;20083;-80
2021/01/17 08:37:51;;;;;;;45.42;19.52;;;1.00;95.50;;;;;;4974968;28;20047;-80
2021/01/17 08:40:27;;;;;;;46.60;19.92;;;1.00;95.50;;;;;;4964754;28;20054;-80
2021/01/17 08:42:55;;;;;;;50.47;20.77;;;1.00;95.50;;;;;;4971729;28;20047;-80
2021/01/17 08:45:21;;;;;;;46.03;20.65;;;1.00;95.60;;;;;;4954476;29;20373;-80
2021/01/17 08:47:50;;;;;;;44.60;20.95;;;1.00;95.50;;;;;;4971129;28;20050;-80
2021/01/17 08:50:29;;;;;;;41.75;20.55;;;1.00;95.50;;;;;;4955391;29;20074;-80
2021/01/17 08:53:11;;;;;;;57.63;22.20;;;1.00;95.50;;;;;;4956300;28;20134;-80
2021/01/17 08:55:44;;;;;;;46.70;20.30;;;1.00;95.50;;;;;;4956399;28;20051;-80
2021/01/17 08:58:17;;;;;;;50.17;20.75;;;1.10;95.50;;;;;;4955683;28;20043;-80
2021/01/17 09:00:49;;;;;;;40.28;20.17;;;1.10;95.50;;;;;;4955318;29;20467;-80
2021/01/17 09:03:41;;;;;;;50.42;20.35;;;1.10;95.50;;;;;;4955668;29;20039;-80
2021/01/17 09:06:13;;;;;;;36.42;19.13;;;1.10;95.50;;;;;;4970851;28;20480;-80
2021/01/17 09:08:48;;;;;;;52.42;20.85;;;1.10;95.50;;;;;;4956181;28;20097;-81
2021/01/17 09:11:38;;;;;;;39.63;17.15;;;1.10;95.50;;;;;;4969476;28;20069;-80
2021/01/17 09:14:07;;;;;;;40.75;20.13;;;1.20;95.50;;;;;;4971075;28;20075;-80
2021/01/17 09:16:37;;;;;;;51.13;22.13;;;1.20;95.50;;;;;;4955004;29;20491;-80
2021/01/17 09:19:06;;;;;;;51.83;20.85;;;1.20;95.40;;;;;;4968243;28;20067;-80
2021/01/17 09:21:33;;;;;;;56.65;21.73;;;1.20;95.40;;;;;;4974241;28;20053;-81
2021/01/17 09:24:06;;;;;;;58.58;21.42;;;1.20;95.40;;;;;;4974028;28;20169;-81
2021/01/17 09:26:32;;;;;;;45.08;21.17;;;1.30;95.40;;;;;;4974536;28;20363;-79
2021/01/17 09:28:57;;;;;;;47.63;19.92;;;1.30;95.40;;;;;;4975325;28;20123;-77
2021/01/17 09:31:24;;;;;;;43.30;20.13;;;1.30;95.40;;;;;;4973232;28;20161;-77
2021/01/17 09:33:50;;;;;;;47.75;21.42;;;1.30;95.40;;;;;;4975106;28;20129;-78
2021/01/17 09:36:24;;;;;;;39.83;19.75;;;1.40;95.40;;;;;;4973915;28;20051;-77
2021/01/17 09:38:50;;;;;;;44.65;21.35;;;1.40;95.40;;;;;;4974838;28;20051;-77
2021/01/17 09:41:26;;;;;;;51.80;21.27;;;1.40;95.40;;;;;;4954463;28;20106;-78
2021/01/17 09:43:53;;;;;;;51.35;21.73;;;1.40;95.30;;;;;;4955628;29;20047;-77
2021/01/17 09:46:20;;;;;;;44.90;20.85;;;1.50;95.30;;;;;;4954677;28;20126;-77
2021/01/17 09:48:55;;;;;;;45.17;21.33;;;1.50;95.40;;;;;;4955618;28;20066;-77
2021/01/17 09:51:22;;;;;;;47.10;22.33;;;1.50;95.30;;;;;;4954469;28;20035;-78
2021/01/17 09:53:49;;;;;;;44.75;21.17;;;1.60;95.30;;;;;;4955172;28;20395;-78
2021/01/17 09:56:15;;;;;;;44.10;20.08;;;1.60;95.30;;;;;;4954747;28;20515;-79
2021/01/17 09:58:41;;;;;;;47.72;22.20;;;1.60;95.20;;;;;;4955123;28;20075;-76
2021/01/17 10:01:07;;;;;;;52.92;21.40;;;1.70;95.20;;;;;;4955067;28;20126;-78
2021/01/17 10:03:36;;;;;;;48.95;22.48;;;1.70;95.20;;;;;;4954476;29;20675;-76
2021/01/17 10:06:02;;;;;;;49.95;22.05;;;1.80;95.20;;;;;;4955158;29;20047;-78
2021/01/17 10:08:27;;;;;;;46.65;21.38;;;1.80;95.20;;;;;;4954403;29;20047;-79
2021/01/17 10:10:53;;;;;;;46.28;21.08;;;1.80;95.10;;;;;;4954776;29;20043;-76
2021/01/17 10:13:20;;;;;;;55.30;22.02;;;1.80;95.10;;;;;;4954278;29;20047;-76
2021/01/17 10:15:47;;;;;;;48.60;21.73;;;1.80;95.10;;;;;;4953621;29;20471;-77
2021/01/17 10:18:13;;;;;;;58.85;23.15;;;1.90;95.10;;;;;;4961032;28;20038;-79
2021/01/17 10:20:39;;;;;;;46.38;21.20;;;1.90;95.10;;;;;;4973398;28;20421;-78
2021/01/17 10:23:12;;;;;;;47.13;20.80;;;2.00;95.10;;;;;;4973098;28;20047;-77
2021/01/17 10:25:38;;;;;;;46.45;21.60;;;2.10;95.00;;;;;;4973625;28;20069;-77
2021/01/17 10:28:09;;;;;;;53.00;21.60;;;2.20;95.00;;;;;;4973090;28;20054;-77
2021/01/17 10:30:41;;;;;;;53.85;23.88;;;2.30;94.90;;;;;;4973161;28;20205;-77
2021/01/17 10:33:08;;;;;;;49.10;22.42;;;2.30;94.90;;;;;;4973809;28;20101;-77
2021/01/17 10:35:45;;;;;;;42.35;19.85;;;2.30;94.90;;;;;;4973229;28;20058;-78
2021/01/17 10:38:12;;;;;;;56.67;25.08;;;2.30;95.00;;;;;;4966694;28;20067;-79
2021/01/17 10:40:39;;;;;;;57.58;26.17;;;2.30;95.00;;;;;;4952380;29;20102;-80
2021/01/17 10:43:07;;;;;;;60.97;29.63;;;2.30;95.10;;;;;;4953166;29;20050;-78
2021/01/17 10:45:34;;;;;;;51.33;22.05;;;2.30;95.00;;;;;;4952635;29;20131;-79
2021/01/17 10:48:12;;;;;;;59.95;25.80;;;2.30;95.10;;;;;;4953013;29;20047;-78
2021/01/17 10:50:49;;;;;;;62.75;27.73;;;2.40;95.10;;;;;;4953855;28;20657;-78
2021/01/17 10:53:22;;;;;;;72.45;31.27;;;2.40;95.10;;;;;;4954469;28;20467;-78
2021/01/17 10:55:59;;;;;;;54.65;25.10;;;2.50;95.20;;;;;;4968947;28;20035;-78
2021/01/17 10:58:38;;;;;;;61.65;25.42;;;2.60;95.20;;;;;;4951948;29;20043;-78
2021/01/17 11:01:04;;;;;;;54.92;24.75;;;2.70;95.20;;;;;;4952766;29;20502;-79
2021/01/17 11:03:34;;;;;;;59.88;27.15;;;2.70;95.20;;;;;;4968379;28;20079;-78
2021/01/17 11:06:21;;;;;;;66.80;29.95;;;2.70;95.20;;;;;;4954041;28;20135;-78
2021/01/17 11:08:55;;;;;;;77.93;33.22;;;2.80;95.20;;;;;;4953966;29;20062;-79
2021/01/17 11:11:27;;;;;;;65.28;29.08;;;2.80;95.30;;;;;;4952239;28;20480;-79
2021/01/17 11:13:57;;;;;;;62.42;28.05;;;2.90;95.30;;;;;;4952709;28;20051;-78
2021/01/17 11:16:43;;;;;;;60.45;26.75;;;2.90;95.40;;;;;;4952303;28;20063;-79
2021/01/17 11:19:11;;;;;;;58.50;23.17;;;3.00;95.40;;;;;;4948577;28;20043;-79
2021/01/17 11:21:37;;;;;;;53.42;23.23;;;3.00;95.40;;;;;;4951986;28;20050;-79
2021/01/17 11:24:04;;;;;;;52.25;24.25;;;3.00;95.50;;;;;;4951699;29;20043;-77
2021/01/17 11:26:30;;;;;;;57.40;22.42;;;3.00;95.40;;;;;;4952800;28;20120;-78
2021/01/17 11:29:01;;;;;;;50.55;20.23;;;3.10;95.50;;;;;;4953247;28;20551;-78
2021/01/17 11:31:27;;;;;;;50.92;23.00;;;3.20;95.50;;;;;;4951341;28;20043;-78
2021/01/17 11:33:54;;;;;;;56.42;24.60;;;3.10;95.40;;;;;;4951744;29;20238;-78
2021/01/17 11:36:28;;;;;;;66.05;29.02;;;3.20;95.50;;;;;;4951737;29;20082;-79
2021/01/17 11:38:57;;;;;;;49.38;21.67;;;3.30;95.50;;;;;;4952447;29;20047;-78
2021/01/17 11:41:35;;;;;;;46.85;19.48;;;3.40;95.50;;;;;;4967574;28;20072;-79
2021/01/17 11:44:16;;;;;;;53.97;21.50;;;3.40;95.60;;;;;;4951020;28;20126;-77
2021/01/17 11:46:43;;;;;;;48.63;23.10;;;3.50;95.60;;;;;;4934381;28;20039;-77
2021/01/17 11:49:09;;;;;;;45.28;20.52;;;3.60;95.60;;;;;;4937696;29;20039;-77
2021/01/17 11:51:36;;;;;;;42.70;17.35;;;3.60;95.60;;;;;;4952519;28;20041;-78
2021/01/17 11:54:12;;;;;;;42.05;18.88;;;3.70;95.70;;;;;;4953584;28;20039;-77
2021/01/17 11:56:39;;;;;;;41.83;17.30;;;3.80;95.70;;;;;;4952436;28;20491;-77
2021/01/17 11:59:05;;;;;;;41.10;17.13;;;3.90;95.70;;;;;;4953428;28;20047;-77
2021/01/17 12:01:31;;;;;;;36.42;16.67;;;4.00;95.70;;;;;;4952535;28;20066;-77
2021/01/17 12:04:02;;;;;;;42.45;18.70;;;4.10;95.70;;;;;;4953166;28;20047;-77
2021/01/17 12:06:29;;;;;;;43.90;18.15;;;4.20;95.80;;;;;;4952612;28;20122;-77
2021/01/17 12:08:56;;;;;;;40.95;16.65;;;4.20;95.90;;;;;;4945203;28;20048;-77
2021/01/17 12:11:32;;;;;;;42.03;15.55;;;4.30;95.90;;;;;;4941839;29;20081;-79
2021/01/17 12:14:07;;;;;;;40.75;16.83;;;4.30;95.90;;;;;;4942382;28;20043;-78
2021/01/17 12:16:44;;;;;;;41.50;16.67;;;4.40;95.80;;;;;;4947798;29;20059;-77
2021/01/17 12:19:14;;;;;;;40.25;15.68;;;4.50;95.90;;;;;;4942143;28;20054;-77
2021/01/17 12:21:42;;;;;;;36.42;17.02;;;4.60;95.90;;;;;;4945786;29;20461;-77
2021/01/17 12:24:13;;;;;;;38.25;16.65;;;4.60;95.90;;;;;;4940813;28;20070;-77
2021/01/17 12:26:41;;;;;;;47.45;20.45;;;4.70;96.00;;;;;;4943948;29;20157;-76
2021/01/17 12:29:07;;;;;;;48.03;21.27;;;4.70;96.00;;;;;;4951961;28;20059;-77
2021/01/17 12:31:33;;;;;;;49.08;20.08;;;4.80;96.10;;;;;;4942162;29;20051;-77
2021/01/17 12:33:59;;;;;;;54.78;25.98;;;4.70;96.00;;;;;;4943693;28;20061;-78
2021/01/17 12:36:28;;;;;;;36.05;15.32;;;4.80;96.10;;;;;;4943463;28;20407;-78
2021/01/17 12:38:56;;;;;;;41.05;16.45;;;4.80;96.10;;;;;;4941756;28;20051;-79
2021/01/17 12:41:28;;;;;;;36.75;15.35;;;4.80;96.10;;;;;;4952912;28;20055;-79
2021/01/17 12:43:55;;;;;;;39.95;16.23;;;4.90;96.20;;;;;;4948028;28;20054;-79
2021/01/17 12:46:21;;;;;;;34.53;14.57;;;4.90;96.10;;;;;;4944406;29;20035;-79
2021/01/17 12:48:48;;;;;;;35.53;14.77;;;5.00;96.10;;;;;;4947769;28;20047;-79
2021/01/17 12:51:14;;;;;;;34.45;15.13;;;5.10;96.20;;;;;;4962954;28;20050;-79
2021/01/17 12:53:42;;;;;;;43.58;15.43;;;5.10;96.20;;;;;;4959253;28;20055;-80
2021/01/17 12:56:08;;;;;;;39.03;16.30;;;5.30;96.20;;;;;;4950616;28;20043;-81